Time;durP1;ratioP1;P1;durP2;ratioP2;P2;SDS_P1;SDS_P2;PMS_P1;PMS_P2;Temp;Humidity;BMP_temperature;BMP_pressure;BME280_temperature;BME280_humidity;BME280_pressure;Samples;Min_cycle;Max_cycle;Signal;HPM_P1;HPM_P2
2022/09/04 00:02:04;;;;;;;5.28;1.88;;;17.70;62.10;;;;;;4997226;28;20046;-61
2022/09/04 00:04:52;;;;;;;5.43;1.80;;;17.70;62.20;;;;;;4998207;28;20050;-62
2022/09/04 00:07:32;;;;;;;3.53;1.60;;;17.70;62.30;;;;;;4985180;28;20042;-61
2022/09/04 00:10:21;;;;;;;9.60;1.80;;;17.70;62.30;;;;;;5002839;28;20495;-61
2022/09/04 00:12:57;;;;;;;5.18;1.70;;;17.60;62.20;;;;;;4983025;28;20152;-61
2022/09/04 00:15:33;;;;;;;4.45;1.70;;;17.60;62.30;;;;;;4980349;28;20549;-61
2022/09/04 00:18:07;;;;;;;2.45;1.75;;;17.60;62.30;;;;;;4983047;28;20099;-62
2022/09/04 00:20:41;;;;;;;4.65;2.00;;;17.60;62.40;;;;;;5004491;28;20046;-62
2022/09/04 00:23:28;;;;;;;4.28;2.47;;;17.60;62.40;;;;;;5001943;28;20057;-61
2022/09/04 00:26:19;;;;;;;7.78;1.70;;;17.60;63.10;;;;;;4999226;28;20049;-61
2022/09/04 00:28:52;;;;;;;4.70;1.88;;;17.60;62.50;;;;;;5004280;28;21062;-62
2022/09/04 00:31:37;;;;;;;8.88;2.20;;;17.50;62.40;;;;;;4996534;28;20052;-61
2022/09/04 00:34:12;;;;;;;3.72;1.63;;;17.50;62.40;;;;;;5002978;28;20117;-61
2022/09/04 00:36:43;;;;;;;5.40;1.90;;;17.50;62.50;;;;;;4995831;28;20504;-61
2022/09/04 00:39:17;;;;;;;5.70;2.40;;;17.50;62.50;;;;;;5002188;28;20033;-62
2022/09/04 00:41:54;;;;;;;5.57;1.98;;;17.50;62.50;;;;;;5002845;28;20973;-62
2022/09/04 00:44:51;;;;;;;4.30;1.88;;;17.50;62.40;;;;;;4980871;28;20166;-62
2022/09/04 00:47:51;;;;;;;4.75;2.05;;;17.50;62.40;;;;;;4976702;28;20053;-62
2022/09/04 00:50:35;;;;;;;5.32;1.90;;;17.40;62.40;;;;;;4962114;28;20139;-61
2022/09/04 00:53:27;;;;;;;6.68;1.92;;;17.40;62.40;;;;;;4983433;28;20541;-62
2022/09/04 00:56:03;;;;;;;3.08;1.80;;;17.40;62.40;;;;;;4982219;28;20052;-61
2022/09/04 00:58:31;;;;;;;3.55;1.80;;;17.40;62.50;;;;;;4977837;28;20041;-62
2022/09/04 01:00:58;;;;;;;7.07;2.15;;;17.40;62.60;;;;;;5000121;28;20076;-62
2022/09/04 01:03:39;;;;;;;3.63;1.95;;;17.40;62.60;;;;;;5002361;28;20505;-61
2022/09/04 01:06:14;;;;;;;5.63;2.08;;;17.30;62.60;;;;;;4981079;28;20045;-62
2022/09/04 01:08:45;;;;;;;3.28;1.98;;;17.30;62.70;;;;;;5003898;28;20602;-62
2022/09/04 01:11:42;;;;;;;7.43;1.83;;;17.30;62.80;;;;;;4997934;28;20053;-62
2022/09/04 01:14:19;;;;;;;2.67;1.73;;;17.30;62.80;;;;;;4998361;28;20053;-62
2022/09/04 01:17:02;;;;;;;8.63;1.95;;;17.30;63.00;;;;;;4994633;28;20069;-63
2022/09/04 01:19:37;;;;;;;7.88;2.03;;;17.20;63.00;;;;;;4982767;28;21005;-62
2022/09/04 01:22:11;;;;;;;7.20;2.20;;;17.20;63.10;;;;;;4983676;28;20494;-62
2022/09/04 01:25:05;;;;;;;6.13;2.05;;;17.20;63.20;;;;;;5003663;28;20049;-62
2022/09/04 01:27:49;;;;;;;3.05;1.73;;;17.20;63.30;;;;;;4998049;28;20061;-62
2022/09/04 01:30:18;;;;;;;5.45;2.20;;;17.10;63.40;;;;;;4986234;28;20116;-62
2022/09/04 01:33:00;;;;;;;10.55;2.10;;;17.10;63.50;;;;;;4979748;28;20050;-61
2022/09/04 01:35:26;;;;;;;5.68;2.17;;;17.10;63.60;;;;;;5003970;28;20088;-62
2022/09/04 01:38:00;;;;;;;7.07;2.03;;;17.10;63.60;;;;;;4998210;28;20042;-63
2022/09/04 01:40:48;;;;;;;4.13;1.77;;;17.00;63.60;;;;;;4989567;28;20049;-62
2022/09/04 01:43:17;;;;;;;5.97;1.95;;;17.00;63.70;;;;;;4995845;28;20183;-62
2022/09/04 01:46:17;;;;;;;3.75;2.13;;;17.00;63.80;;;;;;4996904;28;20050;-62
2022/09/04 01:49:11;;;;;;;4.80;1.98;;;17.00;63.80;;;;;;4995833;28;20050;-62
2022/09/04 01:51:39;;;;;;;5.65;1.98;;;16.90;64.00;;;;;;4972205;28;20042;-62
2022/09/04 01:54:30;;;;;;;4.55;1.90;;;16.90;64.20;;;;;;4996778;28;20132;-62
2022/09/04 01:57:13;;;;;;;3.72;2.17;;;16.90;64.30;;;;;;4998313;28;20099;-62
2022/09/04 01:59:59;;;;;;;10.43;2.35;;;16.80;64.40;;;;;;4999080;28;20046;-62
2022/09/04 02:02:41;;;;;;;3.92;1.90;;;16.80;64.40;;;;;;4967343;28;20434;-62
2022/09/04 02:05:29;;;;;;;4.57;1.90;;;16.80;64.50;;;;;;4981889;28;20054;-62
2022/09/04 02:08:17;;;;;;;8.23;2.25;;;16.70;64.60;;;;;;5000838;28;20400;-62
2022/09/04 02:11:33;;;;;;;3.58;2.15;;;16.70;64.80;;;;;;4973204;28;20052;-62
2022/09/04 02:14:14;;;;;;;5.68;1.90;;;16.70;64.80;;;;;;4917192;29;20062;-62
2022/09/04 02:17:01;;;;;;;4.13;1.95;;;16.60;64.90;;;;;;4933925;28;20099;-62
2022/09/04 02:19:55;;;;;;;3.80;2.20;;;16.60;65.10;;;;;;4958205;28;20057;-62
2022/09/04 02:22:44;;;;;;;4.45;1.95;;;16.60;65.40;;;;;;5001864;28;20053;-62
2022/09/04 02:25:26;;;;;;;4.20;1.95;;;16.50;65.70;;;;;;4981561;28;20133;-62
2022/09/04 02:28:11;;;;;;;2.42;1.80;;;16.50;65.90;;;;;;4981840;28;20129;-62
2022/09/04 02:31:05;;;;;;;4.43;1.85;;;16.40;66.20;;;;;;4992316;28;20050;-62
2022/09/04 02:33:36;;;;;;;3.25;1.90;;;16.30;66.40;;;;;;4976881;28;20096;-62
2022/09/04 02:36:28;;;;;;;6.68;2.20;;;16.30;66.60;;;;;;4999255;28;20128;-62
2022/09/04 02:39:04;;;;;;;2.90;1.90;;;16.20;67.70;;;;;;4968062;28;20054;-62
2022/09/04 02:41:29;;;;;;;8.98;2.25;;;16.20;67.20;;;;;;4979332;28;20050;-62
2022/09/04 02:44:33;;;;;;;7.70;2.72;;;16.20;67.30;;;;;;4969894;28;20562;-62
2022/09/04 02:47:03;;;;;;;;;;;16.10;67.70;;;;;;4993273;28;20049;-62
2022/09/04 02:49:54;;;;;;;4.80;2.05;;;16.00;67.30;;;;;;4997862;28;19960;-62
2022/09/04 02:52:48;;;;;;;4.43;2.20;;;16.00;67.60;;;;;;5000265;28;20054;-62
2022/09/04 02:55:33;;;;;;;6.55;2.10;;;16.00;67.70;;;;;;4985509;28;20053;-62
2022/09/04 02:58:22;;;;;;;4.90;1.88;;;16.00;68.00;;;;;;4986291;28;20060;-62
2022/09/04 03:01:11;;;;;;;4.88;2.08;;;15.90;68.00;;;;;;4959899;28;20124;-62
2022/09/04 03:03:48;;;;;;;3.35;2.10;;;15.90;68.10;;;;;;5000093;28;20164;-62
2022/09/04 03:06:24;;;;;;;6.35;2.22;;;15.90;68.20;;;;;;4998052;28;20524;-62
2022/09/04 03:09:03;;;;;;;5.88;2.05;;;15.90;68.30;;;;;;4996192;28;20056;-62
2022/09/04 03:11:40;;;;;;;4.45;2.05;;;15.80;68.40;;;;;;4982374;28;20058;-62
2022/09/04 03:14:11;;;;;;;2.88;2.13;;;15.90;68.70;;;;;;5000050;28;20081;-62
2022/09/04 03:16:45;;;;;;;5.60;2.00;;;15.80;68.70;;;;;;4991177;28;20070;-62
2022/09/04 03:19:42;;;;;;;4.68;1.98;;;15.80;68.80;;;;;;4981404;28;20125;-62
2022/09/04 03:22:53;;;;;;;3.10;2.17;;;15.70;68.80;;;;;;4980676;28;20052;-62
2022/09/04 03:25:41;;;;;;;7.65;2.30;;;15.70;68.90;;;;;;4920253;29;20047;-62
2022/09/04 03:28:17;;;;;;;2.88;2.10;;;15.70;69.10;;;;;;4941370;28;20043;-62
2022/09/04 03:30:45;;;;;;;5.25;2.00;;;15.70;69.20;;;;;;4969230;28;20057;-62
2022/09/04 03:33:22;;;;;;;3.20;2.00;;;15.60;69.30;;;;;;4983586;28;20659;-61
2022/09/04 03:36:06;;;;;;;6.50;2.20;;;15.60;69.50;;;;;;4998484;28;20042;-62
2022/09/04 03:39:01;;;;;;;3.78;2.20;;;15.60;69.60;;;;;;5000231;28;20487;-62
2022/09/04 03:41:33;;;;;;;4.65;2.05;;;15.60;70.30;;;;;;4980598;28;20508;-62
2022/09/04 03:44:41;;;;;;;3.42;2.28;;;15.60;69.80;;;;;;4982826;28;20127;-62
2022/09/04 03:47:26;;;;;;;3.05;2.00;;;15.60;69.90;;;;;;4977329;28;20104;-62
2022/09/04 03:50:07;;;;;;;6.38;2.65;;;15.50;70.00;;;;;;4961574;28;20049;-62
2022/09/04 03:53:08;;;;;;;3.92;2.20;;;15.50;70.10;;;;;;4998789;28;20046;-62
2022/09/04 03:56:01;;;;;;;3.53;2.15;;;15.40;70.40;;;;;;4934910;28;20065;-62
2022/09/04 03:58:42;;;;;;;5.43;2.40;;;15.40;70.50;;;;;;4982387;28;20947;-62
2022/09/04 04:01:32;;;;;;;4.10;2.35;;;15.40;70.60;;;;;;4982297;28;20475;-62
2022/09/04 04:04:12;;;;;;;5.32;2.08;;;15.40;70.70;;;;;;4998714;28;20089;-62
2022/09/04 04:06:51;;;;;;;5.50;2.38;;;15.30;70.80;;;;;;5002551;28;20057;-61
2022/09/04 04:09:25;;;;;;;3.95;2.42;;;15.30;71.00;;;;;;4985208;28;20049;-62
2022/09/04 04:12:17;;;;;;;5.85;2.13;;;15.30;71.00;;;;;;4998066;28;20119;-62
2022/09/04 04:14:58;;;;;;;2.80;2.25;;;15.30;71.10;;;;;;4978201;28;20042;-62
2022/09/04 04:17:48;;;;;;;9.13;2.70;;;15.30;71.20;;;;;;4999610;28;20057;-62
2022/09/04 04:20:39;;;;;;;2.72;2.10;;;15.20;71.40;;;;;;4997723;28;21734;-62
2022/09/04 04:23:21;;;;;;;3.53;2.38;;;15.20;71.40;;;;;;4998167;28;20041;-62
2022/09/04 04:25:59;;;;;;;3.15;2.30;;;15.20;71.60;;;;;;4978482;28;20712;-62
2022/09/04 04:29:12;;;;;;;3.20;2.30;;;15.10;71.50;;;;;;4984505;28;20046;-62
2022/09/04 04:32:10;;;;;;;5.22;2.92;;;15.10;71.60;;;;;;4999766;28;20053;-62
2022/09/04 04:34:57;;;;;;;3.38;2.50;;;15.10;71.70;;;;;;5000292;28;20470;-62
2022/09/04 04:37:55;;;;;;;5.22;2.78;;;15.10;71.90;;;;;;4983469;28;20060;-62
2022/09/04 04:40:31;;;;;;;5.15;2.30;;;15.10;72.10;;;;;;4983741;28;20041;-61
2022/09/04 04:43:18;;;;;;;4.45;2.28;;;15.10;72.20;;;;;;4977019;28;20144;-62
2022/09/04 04:46:07;;;;;;;8.38;2.45;;;15.10;72.30;;;;;;4954012;28;20065;-62
2022/09/04 04:49:08;;;;;;;3.03;2.28;;;15.10;72.30;;;;;;4971816;28;20050;-62
2022/09/04 04:51:56;;;;;;;4.20;2.28;;;15.10;72.50;;;;;;4987140;28;20062;-62
2022/09/04 04:54:33;;;;;;;3.97;2.33;;;15.10;72.50;;;;;;5000058;28;20149;-62
2022/09/04 04:57:17;;;;;;;4.50;2.17;;;15.20;72.50;;;;;;4969686;28;20089;-62
2022/09/04 05:00:10;;;;;;;4.28;2.60;;;15.20;72.60;;;;;;4973503;28;20124;-62
2022/09/04 05:02:50;;;;;;;3.47;2.40;;;15.20;72.60;;;;;;4983200;28;20045;-62
2022/09/04 05:05:16;;;;;;;4.72;2.85;;;15.20;72.40;;;;;;4982760;28;20053;-62
2022/09/04 05:08:19;;;;;;;5.40;2.67;;;15.20;72.40;;;;;;4997311;28;20096;-62
2022/09/04 05:10:52;;;;;;;11.65;2.60;;;15.20;72.60;;;;;;4972830;28;20046;-61
2022/09/04 05:13:46;;;;;;;5.53;2.50;;;15.20;72.60;;;;;;4970979;28;21420;-61
2022/09/04 05:16:33;;;;;;;4.82;2.60;;;15.20;72.70;;;;;;4979828;28;20531;-61
2022/09/04 05:19:33;;;;;;;7.75;2.47;;;15.20;72.70;;;;;;4976356;28;20057;-62
2022/09/04 05:22:16;;;;;;;3.83;2.40;;;15.20;72.80;;;;;;4965577;28;20046;-62
2022/09/04 05:25:16;;;;;;;4.43;2.35;;;15.20;72.90;;;;;;4980383;28;20050;-62
2022/09/04 05:28:26;;;;;;;7.88;2.53;;;15.20;72.90;;;;;;4958802;28;20046;-62
2022/09/04 05:31:04;;;;;;;5.88;2.70;;;15.10;73.20;;;;;;4992539;28;20053;-62
2022/09/04 05:34:06;;;;;;;6.82;2.53;;;15.10;73.00;;;;;;4996993;28;20532;-61
2022/09/04 05:36:45;;;;;;;8.23;2.72;;;15.10;73.20;;;;;;4980584;28;20065;-61
2022/09/04 05:39:29;;;;;;;4.03;2.67;;;15.10;73.20;;;;;;4997091;28;24098;-62
2022/09/04 05:42:04;;;;;;;5.20;2.42;;;15.20;73.30;;;;;;4974210;28;20057;-62
2022/09/04 05:45:00;;;;;;;6.47;2.90;;;15.20;73.30;;;;;;4993616;28;20491;-62
2022/09/04 05:47:38;;;;;;;7.35;2.50;;;15.20;73.20;;;;;;4977961;28;20099;-62
2022/09/04 05:50:38;;;;;;;3.78;2.67;;;15.20;73.30;;;;;;4993401;28;20057;-62
2022/09/04 05:53:25;;;;;;;9.27;2.60;;;15.30;73.10;;;;;;4971468;28;20046;-61
2022/09/04 05:56:00;;;;;;;6.15;3.10;;;15.30;73.10;;;;;;4969801;28;20636;-62
2022/09/04 05:59:17;;;;;;;4.07;2.72;;;15.30;73.10;;;;;;4979805;28;20132;-62
2022/09/04 06:02:20;;;;;;;4.78;2.80;;;15.40;73.10;;;;;;4983830;28;20061;-62
2022/09/04 06:05:05;;;;;;;5.85;2.58;;;15.30;73.10;;;;;;4998280;28;20224;-61
2022/09/04 06:07:47;;;;;;;3.85;2.75;;;15.40;73.10;;;;;;4998166;28;20099;-61
2022/09/04 06:10:17;;;;;;;6.40;3.05;;;15.40;73.20;;;;;;4994447;28;20949;-62
2022/09/04 06:13:12;;;;;;;3.97;2.72;;;15.40;73.10;;;;;;4993905;28;20244;-61
2022/09/04 06:15:57;;;;;;;4.07;2.50;;;15.40;73.10;;;;;;4993335;28;20422;-62
2022/09/04 06:18:56;;;;;;;4.10;3.03;;;15.40;73.20;;;;;;4957274;28;20520;-62
2022/09/04 06:21:45;;;;;;;5.50;2.60;;;15.40;73.00;;;;;;4988264;28;20117;-61
2022/09/04 06:24:29;;;;;;;3.42;2.78;;;15.40;73.20;;;;;;5008942;28;20045;-62
2022/09/04 06:27:12;;;;;;;9.98;4.30;;;15.40;73.30;;;;;;5014413;28;20042;-62
2022/09/04 06:29:51;;;;;;;7.78;2.65;;;15.50;73.20;;;;;;4995889;28;20490;-62
2022/09/04 06:32:41;;;;;;;6.90;2.30;;;15.50;73.40;;;;;;5013737;28;20120;-62
2022/09/04 06:35:31;;;;;;;8.20;2.78;;;15.50;73.50;;;;;;5005267;28;20053;-61
2022/09/04 06:38:09;;;;;;;6.20;2.53;;;15.50;73.50;;;;;;4992218;28;20046;-62
2022/09/04 06:40:38;;;;;;;8.45;2.88;;;15.50;73.60;;;;;;5008310;28;20507;-62
2022/09/04 06:43:30;;;;;;;6.55;3.05;;;15.50;73.70;;;;;;4982680;28;20080;-62
2022/09/04 06:46:47;;;;;;;3.05;2.67;;;15.60;73.70;;;;;;4979746;28;20385;-62
2022/09/04 06:49:25;;;;;;;7.85;2.95;;;15.60;73.90;;;;;;4976986;28;20507;-62
2022/09/04 06:51:52;;;;;;;8.85;3.10;;;15.70;74.00;;;;;;5012220;28;20045;-63
2022/09/04 06:54:33;;;;;;;6.90;2.85;;;15.70;73.80;;;;;;5007447;28;20038;-62
2022/09/04 06:57:24;;;;;;;5.47;3.00;;;15.80;74.10;;;;;;4988662;28;20046;-62
2022/09/04 07:00:02;;;;;;;7.10;2.80;;;15.80;74.90;;;;;;5010369;28;20261;-62
2022/09/04 07:02:55;;;;;;;3.28;2.88;;;15.90;74.10;;;;;;5009465;28;20042;-61
2022/09/04 07:05:30;;;;;;;;;;;16.00;74.00;;;;;;4992334;28;20049;-62
2022/09/04 07:08:11;;;;;;;4.65;2.63;;;16.00;73.60;;;;;;4983477;28;20023;-61
2022/09/04 07:10:51;;;;;;;4.10;2.88;;;16.10;73.60;;;;;;4998343;28;20129;-62
2022/09/04 07:14:03;;;;;;;6.72;2.97;;;16.20;73.50;;;;;;4977507;28;20045;-62
2022/09/04 07:16:43;;;;;;;4.15;2.83;;;16.20;73.40;;;;;;5009761;28;20046;-62
2022/09/04 07:19:36;;;;;;;4.70;2.95;;;16.30;73.30;;;;;;5007065;28;20034;-61
2022/09/04 07:22:38;;;;;;;5.20;3.00;;;16.40;73.30;;;;;;5007198;28;20068;-61
2022/09/04 07:25:48;;;;;;;4.93;3.00;;;16.50;73.20;;;;;;4974311;28;20132;-62
2022/09/04 07:29:05;;;;;;;4.15;2.60;;;16.60;73.10;;;;;;4970004;28;20049;-62
2022/09/04 07:31:44;;;;;;;4.57;2.95;;;16.80;73.20;;;;;;4914585;29;20087;-62
2022/09/04 07:34:36;;;;;;;9.50;2.70;;;16.90;72.60;;;;;;4971688;28;20334;-61
2022/09/04 07:37:22;;;;;;;4.63;2.80;;;17.10;72.50;;;;;;4995117;28;20037;-62
2022/09/04 07:39:56;;;;;;;5.13;2.85;;;17.20;72.70;;;;;;5009740;28;20046;-61
2022/09/04 07:42:35;;;;;;;7.90;3.00;;;17.40;72.30;;;;;;4966888;28;20136;-62
2022/09/04 07:45:10;;;;;;;8.45;2.67;;;17.50;71.90;;;;;;4990566;28;20050;-62
2022/09/04 07:47:42;;;;;;;4.07;2.95;;;17.60;71.80;;;;;;4999263;28;20116;-62
2022/09/04 07:50:13;;;;;;;4.10;2.72;;;17.70;71.70;;;;;;5002578;28;20046;-62
2022/09/04 07:53:21;;;;;;;4.53;2.72;;;17.80;71.60;;;;;;5000189;28;20050;-62
2022/09/04 07:56:13;;;;;;;5.82;2.80;;;18.00;71.20;;;;;;4998558;28;20058;-62
2022/09/04 07:58:55;;;;;;;4.40;2.83;;;18.10;71.10;;;;;;4950533;28;20046;-62
2022/09/04 08:01:36;;;;;;;9.43;3.43;;;18.20;70.90;;;;;;5003470;28;20320;-62
2022/09/04 08:04:20;;;;;;;5.20;3.05;;;18.30;70.60;;;;;;4957537;28;20312;-62
2022/09/04 08:06:59;;;;;;;3.42;2.90;;;18.50;70.40;;;;;;4995904;28;20136;-62
2022/09/04 08:09:43;;;;;;;4.13;2.58;;;18.60;70.20;;;;;;4969894;28;20042;-62
2022/09/04 08:12:29;;;;;;;8.75;2.80;;;18.80;70.20;;;;;;4996750;28;20056;-62
2022/09/04 08:15:09;;;;;;;6.35;2.65;;;19.00;70.10;;;;;;4998025;28;20058;-62
2022/09/04 08:17:43;;;;;;;4.35;2.72;;;19.10;69.80;;;;;;4996010;28;20068;-62
2022/09/04 08:20:25;;;;;;;4.82;2.47;;;19.30;69.30;;;;;;5002142;28;20096;-62
2022/09/04 08:23:28;;;;;;;6.82;2.55;;;19.40;69.20;;;;;;4992377;28;20049;-62
2022/09/04 08:26:13;;;;;;;4.43;2.47;;;19.60;69.30;;;;;;5000991;28;20064;-62
2022/09/04 08:28:48;;;;;;;7.63;2.60;;;19.70;68.70;;;;;;5004880;28;20049;-62
2022/09/04 08:31:24;;;;;;;4.30;2.47;;;19.90;68.30;;;;;;4984938;28;20053;-62
2022/09/04 08:34:17;;;;;;;3.45;2.42;;;20.00;68.40;;;;;;4980715;28;20046;-62
2022/09/04 08:36:47;;;;;;;;;;;20.20;68.60;;;;;;4997653;28;20096;-62
2022/09/04 08:39:39;;;;;;;5.72;2.70;;;20.30;68.60;;;;;;4985629;28;19921;-63
2022/09/04 08:42:50;;;;;;;5.30;2.50;;;20.60;67.80;;;;;;4973592;28;20046;-62
2022/09/04 08:45:22;;;;;;;8.25;2.42;;;20.70;67.50;;;;;;4924581;28;20512;-62
2022/09/04 08:48:03;;;;;;;4.53;2.47;;;20.80;67.10;;;;;;5002835;28;20069;-62
2022/09/04 08:50:33;;;;;;;8.88;2.38;;;20.90;66.90;;;;;;5006509;28;20489;-62
2022/09/04 08:53:21;;;;;;;5.55;2.40;;;21.00;66.50;;;;;;4991600;28;20046;-62
2022/09/04 08:56:25;;;;;;;8.23;2.40;;;21.20;66.70;;;;;;4997475;28;20125;-62
2022/09/04 08:59:25;;;;;;;4.57;2.22;;;21.30;67.20;;;;;;4952864;28;20511;-62
2022/09/04 09:02:22;;;;;;;9.55;2.45;;;21.60;66.70;;;;;;4998583;28;20045;-62
2022/09/04 09:04:54;;;;;;;7.03;2.30;;;21.80;66.20;;;;;;4976160;28;20108;-62
2022/09/04 09:07:43;;;;;;;5.70;1.97;;;21.80;65.70;;;;;;4997794;28;20523;-63
2022/09/04 09:10:18;;;;;;;9.25;2.60;;;22.00;65.90;;;;;;4958847;28;20305;-62
2022/09/04 09:13:19;;;;;;;2.63;2.15;;;22.10;65.50;;;;;;5000082;28;20053;-62
2022/09/04 09:16:12;;;;;;;3.40;2.00;;;22.20;64.70;;;;;;4991508;28;20041;-62
2022/09/04 09:18:58;;;;;;;4.60;2.05;;;22.40;64.80;;;;;;4962824;28;20654;-62
2022/09/04 09:21:48;;;;;;;6.03;2.20;;;22.60;64.40;;;;;;4983424;28;20054;-61
2022/09/04 09:24:41;;;;;;;3.88;2.10;;;22.70;64.50;;;;;;4981914;28;20050;-60
2022/09/04 09:27:43;;;;;;;7.47;2.30;;;22.80;63.70;;;;;;5004595;28;20056;-60
2022/09/04 09:30:18;;;;;;;8.87;1.90;;;23.00;63.50;;;;;;5004023;28;20104;-60
2022/09/04 09:32:55;;;;;;;5.60;1.70;;;23.20;63.30;;;;;;5006510;28;20810;-60
2022/09/04 09:35:40;;;;;;;5.75;2.15;;;23.30;62.70;;;;;;5002374;28;20060;-60
2022/09/04 09:38:21;;;;;;;3.00;2.10;;;23.50;62.50;;;;;;5006462;28;20088;-59
2022/09/04 09:41:12;;;;;;;3.05;1.95;;;23.70;62.70;;;;;;4976605;28;20041;-59
2022/09/04 09:43:58;;;;;;;5.40;2.00;;;23.90;61.80;;;;;;5004721;28;20523;-59
2022/09/04 09:46:49;;;;;;;2.78;1.90;;;24.00;61.60;;;;;;5010692;28;20042;-59
2022/09/04 09:49:40;;;;;;;2.83;1.90;;;24.10;61.90;;;;;;5009413;28;20041;-60
2022/09/04 09:52:29;;;;;;;3.80;1.80;;;24.30;61.40;;;;;;5004254;28;20089;-60
2022/09/04 09:55:23;;;;;;;8.88;1.90;;;24.40;61.90;;;;;;4974788;28;20065;-60
2022/09/04 09:58:08;;;;;;;2.72;1.75;;;24.60;60.40;;;;;;5004387;28;20499;-59
2022/09/04 10:01:10;;;;;;;3.33;1.77;;;24.70;60.10;;;;;;5005089;28;20038;-60
2022/09/04 10:03:42;;;;;;;2.20;1.70;;;24.80;59.80;;;;;;4989629;28;20053;-59
2022/09/04 10:06:52;;;;;;;3.35;2.10;;;24.90;59.20;;;;;;4976814;28;20519;-60
2022/09/04 10:09:33;;;;;;;6.00;1.80;;;25.00;59.10;;;;;;4974862;28;20052;-67
2022/09/04 10:12:26;;;;;;;3.88;1.80;;;25.10;59.00;;;;;;4978903;28;20054;-68
2022/09/04 10:15:04;;;;;;;2.47;1.60;;;25.30;59.00;;;;;;4988931;28;20132;-66
2022/09/04 10:18:01;;;;;;;3.85;1.52;;;25.50;58.20;;;;;;4985476;28;20160;-66
2022/09/04 10:21:11;;;;;;;3.45;1.88;;;25.70;58.70;;;;;;4973217;28;20042;-66
2022/09/04 10:23:56;;;;;;;3.60;1.63;;;26.00;58.30;;;;;;4930074;28;20062;-67
2022/09/04 10:26:40;;;;;;;4.50;1.75;;;26.20;57.40;;;;;;4964195;28;20472;-66
2022/09/04 10:29:32;;;;;;;2.60;1.42;;;26.40;56.50;;;;;;5003198;28;20497;-67
2022/09/04 10:32:19;;;;;;;5.68;1.73;;;26.60;56.90;;;;;;4981569;28;20683;-66
2022/09/04 10:34:57;;;;;;;6.05;1.65;;;26.70;56.10;;;;;;4975764;28;20042;-66
2022/09/04 10:37:23;;;;;;;3.20;1.80;;;26.80;55.70;;;;;;4981952;28;20699;-66
2022/09/04 10:41:00;;;;;;;3.65;1.70;;;26.90;55.50;;;;;;4977726;28;20046;-66
2022/09/04 10:43:35;;;;;;;3.80;1.80;;;26.90;54.90;;;;;;4945826;28;21110;-65
2022/09/04 10:46:20;;;;;;;2.22;1.70;;;27.00;54.90;;;;;;4927194;28;20058;-66
2022/09/04 10:49:14;;;;;;;3.70;1.52;;;27.00;54.70;;;;;;4968100;28;20053;-66
2022/09/04 10:52:20;;;;;;;4.65;1.70;;;27.00;54.40;;;;;;4978158;28;20046;-66
2022/09/04 10:54:52;;;;;;;5.03;1.58;;;27.00;54.90;;;;;;4973536;28;20588;-66
2022/09/04 10:57:30;;;;;;;4.43;1.90;;;27.10;54.60;;;;;;4986710;28;20054;-66
2022/09/04 11:00:13;;;;;;;3.17;1.60;;;27.30;54.70;;;;;;4961493;28;20133;-65
2022/09/04 11:02:48;;;;;;;5.35;1.50;;;27.20;54.00;;;;;;4973630;28;20137;-66
2022/09/04 11:06:01;;;;;;;2.28;1.70;;;27.20;54.20;;;;;;4991521;28;20069;-65
2022/09/04 11:08:35;;;;;;;7.03;1.70;;;27.30;54.40;;;;;;4938576;28;20104;-64
2022/09/04 11:11:23;;;;;;;23.95;2.80;;;27.30;53.90;;;;;;4978866;28;20038;-60
2022/09/04 11:14:07;;;;;;;13.07;2.83;;;27.40;53.90;;;;;;4976604;28;20082;-60
2022/09/04 11:17:01;;;;;;;4.40;1.85;;;27.40;53.80;;;;;;4977678;28;20077;-60
2022/09/04 11:19:48;;;;;;;8.90;2.78;;;27.60;53.90;;;;;;4979100;28;20635;-60
2022/09/04 11:22:26;;;;;;;7.55;1.70;;;27.80;54.80;;;;;;4970066;28;20136;-60
2022/09/04 11:25:07;;;;;;;5.63;1.70;;;28.00;53.30;;;;;;4973928;28;20071;-61
2022/09/04 11:27:52;;;;;;;2.65;1.60;;;28.10;53.10;;;;;;4980146;28;20042;-60
2022/09/04 11:30:19;;;;;;;10.30;1.90;;;28.30;52.50;;;;;;4979933;28;20084;-60
2022/09/04 11:32:59;;;;;;;8.98;1.48;;;28.30;52.10;;;;;;4981373;28;23346;-60
2022/09/04 11:35:50;;;;;;;2.22;1.50;;;28.30;52.00;;;;;;4987245;28;20049;-60
2022/09/04 11:38:27;;;;;;;4.88;1.38;;;28.30;52.00;;;;;;4985631;28;20047;-61
2022/09/04 11:41:28;;;;;;;2.85;1.67;;;28.30;51.90;;;;;;4975742;28;20049;-60
2022/09/04 11:44:31;;;;;;;5.57;1.73;;;28.30;51.70;;;;;;4988667;28;20045;-61
2022/09/04 11:47:44;;;;;;;2.63;1.60;;;28.40;52.10;;;;;;4971799;28;20057;-60
2022/09/04 11:51:00;;;;;;;10.48;2.13;;;28.40;51.70;;;;;;4949541;28;20066;-60
2022/09/04 11:54:01;;;;;;;5.75;1.50;;;28.30;51.50;;;;;;4960268;28;20055;-62
2022/09/04 11:56:56;;;;;;;5.55;2.10;;;28.30;51.80;;;;;;4977925;28;20058;-60
2022/09/04 11:59:48;;;;;;;5.35;1.65;;;28.30;51.70;;;;;;4985409;28;20050;-60
2022/09/04 12:02:23;;;;;;;6.95;1.90;;;28.40;52.10;;;;;;4982505;28;20046;-60
2022/09/04 12:05:44;;;;;;;3.65;1.50;;;28.50;51.70;;;;;;4979457;28;21266;-60
2022/09/04 12:08:39;;;;;;;8.73;1.98;;;28.70;52.10;;;;;;4930758;28;20138;-61
2022/09/04 12:11:30;;;;;;;3.38;1.83;;;29.00;51.90;;;;;;4988167;28;20550;-60
2022/09/04 12:14:32;;;;;;;12.57;2.72;;;29.20;50.80;;;;;;4980935;28;20108;-61
2022/09/04 12:17:14;;;;;;;5.07;2.10;;;29.30;51.00;;;;;;4990866;28;20065;-60
2022/09/04 12:19:52;;;;;;;7.95;1.70;;;29.30;50.80;;;;;;5004689;28;20045;-59
2022/09/04 12:22:21;;;;;;;6.30;1.92;;;29.40;50.70;;;;;;5008698;28;20049;-60
2022/09/04 12:25:05;;;;;;;19.98;1.98;;;29.60;51.00;;;;;;4976539;28;20128;-60
2022/09/04 12:27:49;;;;;;;4.82;1.75;;;29.60;51.00;;;;;;5001369;28;20526;-60
2022/09/04 12:30:47;;;;;;;4.15;1.40;;;29.60;50.30;;;;;;4997268;28;20515;-60
2022/09/04 12:33:55;;;;;;;5.57;1.58;;;29.70;50.80;;;;;;4975073;28;20057;-59
2022/09/04 12:36:36;;;;;;;4.90;1.70;;;29.80;51.40;;;;;;4968013;28;20656;-60
2022/09/04 12:39:33;;;;;;;4.28;1.60;;;29.90;50.50;;;;;;5002360;28;20068;-60
2022/09/04 12:42:27;;;;;;;3.30;1.80;;;29.90;51.00;;;;;;5004391;28;20049;-59
2022/09/04 12:45:11;;;;;;;2.40;1.30;;;29.90;50.50;;;;;;5003883;28;20046;-59
2022/09/04 12:47:57;;;;;;;3.47;1.35;;;29.90;51.00;;;;;;5003398;28;20057;-60
2022/09/04 12:50:37;;;;;;;6.75;1.63;;;30.00;50.40;;;;;;4995481;28;20049;-60
2022/09/04 12:53:34;;;;;;;2.53;1.40;;;30.10;50.30;;;;;;4988608;28;20065;-59
2022/09/04 12:56:10;;;;;;;3.30;1.50;;;30.20;49.60;;;;;;5003377;28;20056;-60
2022/09/04 12:58:58;;;;;;;3.85;1.42;;;30.40;49.80;;;;;;5010619;28;20392;-60
2022/09/04 13:01:55;;;;;;;2.63;1.40;;;30.60;49.50;;;;;;5002560;28;20124;-59
2022/09/04 13:04:22;;;;;;;6.50;1.70;;;30.90;50.20;;;;;;5007866;28;20492;-60
2022/09/04 13:07:10;;;;;;;2.35;1.20;;;31.10;49.30;;;;;;5007622;28;20622;-60
2022/09/04 13:09:57;;;;;;;2.35;1.30;;;31.00;48.90;;;;;;5005186;28;20038;-60
2022/09/04 13:12:38;;;;;;;4.32;1.40;;;31.10;49.10;;;;;;5011843;28;20133;-60
2022/09/04 13:15:21;;;;;;;3.78;1.30;;;31.20;48.80;;;;;;5004480;28;20088;-60
2022/09/04 13:18:35;;;;;;;7.70;1.25;;;31.20;48.50;;;;;;5014038;28;20046;-59
2022/09/04 13:21:32;;;;;;;4.30;1.30;;;31.30;48.60;;;;;;4976780;28;20045;-59
2022/09/04 13:24:24;;;;;;;3.33;1.60;;;31.40;47.90;;;;;;5008798;28;20073;-60
2022/09/04 13:27:25;;;;;;;3.75;1.25;;;31.30;48.30;;;;;;5001908;28;20143;-59
2022/09/04 13:30:20;;;;;;;4.53;1.50;;;31.60;49.00;;;;;;4998969;28;20775;-60
2022/09/04 13:32:58;;;;;;;3.58;1.30;;;31.90;48.40;;;;;;5002980;28;20136;-60
2022/09/04 13:35:46;;;;;;;4.15;1.40;;;32.10;47.90;;;;;;5001812;28;20045;-61
2022/09/04 13:38:14;;;;;;;3.33;1.30;;;32.20;47.70;;;;;;5006237;28;20143;-60
2022/09/04 13:41:05;;;;;;;3.17;1.38;;;32.30;46.80;;;;;;5004946;28;20083;-60
2022/09/04 13:43:49;;;;;;;3.30;1.33;;;32.20;47.10;;;;;;5011466;28;20041;-60
2022/09/04 13:46:20;;;;;;;1.60;1.20;;;32.10;46.90;;;;;;5009097;28;20457;-59
2022/09/04 13:49:05;;;;;;;3.30;1.30;;;32.00;46.40;;;;;;5005220;28;20042;-60
2022/09/04 13:51:44;;;;;;;2.33;1.30;;;32.10;46.90;;;;;;5009848;28;20352;-59
2022/09/04 13:54:10;;;;;;;3.13;1.20;;;32.10;46.90;;;;;;4999219;28;20054;-60
2022/09/04 13:57:01;;;;;;;1.90;1.38;;;32.00;46.40;;;;;;4988499;28;20045;-60
2022/09/04 13:59:28;;;;;;;2.17;1.48;;;32.00;47.10;;;;;;5004030;28;20412;-60
2022/09/04 14:02:01;;;;;;;2.30;1.40;;;31.80;47.80;;;;;;5002570;28;20060;-60
2022/09/04 14:04:33;;;;;;;4.03;1.33;;;31.80;47.70;;;;;;5003613;28;23089;-60
2022/09/04 14:07:05;;;;;;;;;;;31.80;47.70;;;;;;4976875;28;20056;-60
2022/09/04 14:09:39;;;;;;;5.68;1.40;;;31.70;47.70;;;;;;5001460;28;19925;-60
2022/09/04 14:12:30;;;;;;;3.55;1.20;;;31.60;48.10;;;;;;4984251;28;20041;-61
2022/09/04 14:15:14;;;;;;;3.33;1.40;;;31.50;49.20;;;;;;5007293;28;20034;-60
2022/09/04 14:17:43;;;;;;;7.60;1.40;;;31.50;48.00;;;;;;5004313;28;20057;-60
2022/09/04 14:20:44;;;;;;;1.33;1.20;;;31.40;48.10;;;;;;5013575;28;20041;-60
2022/09/04 14:23:22;;;;;;;2.13;1.30;;;31.30;49.10;;;;;;4999949;28;20057;-61
2022/09/04 14:26:05;;;;;;;5.25;1.42;;;31.40;48.50;;;;;;5004975;28;20046;-60